Time,TemperatureF,DewpointF,PressureIn,WindDirection,WindDirectionDegrees,WindSpeedMPH,WindSpeedGustMPH,Humidity,HourlyPrecipIn,Conditions,Clouds,dailyrainin,SolarRadiationWatts/m^2,SoftwareType,DateUTC
2013-06-27 00:01:00,62.0,26.0,-100.00,WNW,298,2.0,3.0,25,0.00,,,0.00,0.000000,,2013-06-27 06:01:00,
2013-06-27 00:12:00,62.0,26.0,-100.00,WNW,298,2.0,3.0,25,0.00,,,0.00,0.000000,,2013-06-27 06:12:00,
2013-06-27 00:22:00,62.0,26.0,-100.00,WNW,298,2.0,3.0,25,0.00,,,0.00,0.000000,,2013-06-27 06:22:00,
2013-06-27 00:53:00,62.0,28.0,-100.00,NW,311,2.0,4.0,27,0.00,,,0.00,0.000000,,2013-06-27 06:53:00,
2013-06-27 01:02:00,62.0,28.0,-100.00,NW,311,2.0,4.0,27,0.00,,,0.00,0.000000,,2013-06-27 07:02:00,
2013-06-27 01:12:00,62.0,28.0,-100.00,NW,311,2.0,4.0,27,0.00,,,0.00,0.000000,,2013-06-27 07:12:00,
2013-06-27 01:22:00,62.0,28.0,-100.00,NW,311,2.0,4.0,27,0.00,,,0.00,0.000000,,2013-06-27 07:22:00,
2013-06-27 01:52:00,58.0,28.0,-100.00,WNW,288,2.0,4.0,31,0.00,,,0.00,0.000000,,2013-06-27 07:52:00,
2013-06-27 02:01:00,58.0,28.0,-100.00,WNW,288,2.0,4.0,31,0.00,,,0.00,0.000000,,2013-06-27 08:01:00,
2013-06-27 02:11:00,58.0,28.0,-100.00,WNW,288,2.0,4.0,31,0.00,,,0.00,0.000000,,2013-06-27 08:11:00,
2013-06-27 02:22:00,58.0,28.0,-100.00,WNW,288,2.0,4.0,31,0.00,,,0.00,0.000000,,2013-06-27 08:22:00,
2013-06-27 02:43:00,58.0,28.0,-100.00,NW,307,2.0,3.0,31,0.00,,,0.00,0.000000,,2013-06-27 08:43:00,
2013-06-27 02:52:00,58.0,28.0,-100.00,NW,307,2.0,3.0,31,0.00,,,0.00,0.000000,,2013-06-27 08:52:00,
2013-06-27 03:02:00,58.0,28.0,-100.00,NW,307,2.0,3.0,31,0.00,,,0.00,0.000000,,2013-06-27 09:02:00,
2013-06-27 03:11:00,58.0,28.0,-100.00,NW,307,2.0,3.0,31,0.00,,,0.00,0.000000,,2013-06-27 09:11:00,
2013-06-27 03:22:00,58.0,28.0,-100.00,NW,307,2.0,3.0,31,0.00,,,0.00,0.000000,,2013-06-27 09:22:00,
2013-06-27 03:53:00,58.0,28.0,-100.00,WNW,299,2.0,3.0,32,0.00,,,0.00,0.000000,,2013-06-27 09:53:00,
2013-06-27 04:01:00,58.0,28.0,-100.00,WNW,299,2.0,3.0,32,0.00,,,0.00,0.000000,,2013-06-27 10:01:00,
2013-06-27 04:11:00,58.0,28.0,-100.00,WNW,299,2.0,3.0,32,0.00,,,0.00,0.000000,,2013-06-27 10:11:00,
2013-06-27 04:22:00,58.0,28.0,-100.00,WNW,299,2.0,3.0,32,0.00,,,0.00,0.000000,,2013-06-27 10:22:00,
2013-06-27 04:44:00,57.0,27.0,-100.00,NW,321,1.0,3.0,31,0.00,,,0.00,0.000000,,2013-06-27 10:44:00,
2013-06-27 04:54:00,57.0,27.0,-100.00,NW,321,1.0,3.0,31,0.00,,,0.00,0.000000,,2013-06-27 10:54:00,
2013-06-27 05:01:00,57.0,27.0,-100.00,NW,321,1.0,3.0,31,0.00,,,0.00,0.000000,,2013-06-27 11:01:00,
2013-06-27 05:11:00,57.0,27.0,-100.00,NW,321,1.0,3.0,31,0.00,,,0.00,0.000000,,2013-06-27 11:11:00,
2013-06-27 05:21:00,57.0,27.0,-100.00,NW,321,1.0,3.0,31,0.00,,,0.00,0.000000,,2013-06-27 11:21:00,
2013-06-27 05:43:00,56.0,26.0,-100.00,NW,323,2.0,3.0,31,0.00,,,0.00,0.000000,,2013-06-27 11:43:00,
2013-06-27 05:52:00,56.0,26.0,-100.00,NW,323,2.0,3.0,31,0.00,,,0.00,0.000000,,2013-06-27 11:52:00,
2013-06-27 06:01:00,56.0,26.0,-100.00,NW,323,2.0,3.0,31,0.00,,,0.00,0.000000,,2013-06-27 12:01:00,
2013-06-27 06:11:00,56.0,26.0,-100.00,NW,323,2.0,3.0,31,0.00,,,0.00,0.000000,,2013-06-27 12:11:00,
2013-06-27 06:22:00,56.0,26.0,-100.00,NW,323,2.0,3.0,31,0.00,,,0.00,0.000000,,2013-06-27 12:22:00,
2013-06-27 06:42:00,59.0,31.0,-100.00,NW,310,1.0,3.0,34,0.00,,,0.00,43.000000,,2013-06-27 12:42:00,
2013-06-27 07:01:00,59.0,31.0,-100.00,NW,310,1.0,3.0,34,0.00,,,0.00,43.000000,,2013-06-27 13:01:00,
2013-06-27 07:11:00,59.0,31.0,-100.00,NW,310,1.0,3.0,34,0.00,,,0.00,43.000000,,2013-06-27 13:11:00,
2013-06-27 07:22:00,59.0,31.0,-100.00,NW,310,1.0,3.0,34,0.00,,,0.00,43.000000,,2013-06-27 13:22:00,
2013-06-27 08:02:00,67.0,31.0,-100.00,NE,53,2.0,5.0,26,0.00,,,0.00,263.000000,,2013-06-27 14:02:00,
2013-06-27 08:11:00,67.0,31.0,-100.00,NE,53,2.0,5.0,26,0.00,,,0.00,263.000000,,2013-06-27 14:11:00,
2013-06-27 08:22:00,67.0,31.0,-100.00,NE,53,2.0,5.0,26,0.00,,,0.00,263.000000,,2013-06-27 14:22:00,
2013-06-27 08:43:00,70.0,33.0,-100.00,SE,137,2.0,3.0,25,0.00,,,0.00,508.000000,,2013-06-27 14:43:00,
2013-06-27 08:52:00,70.0,33.0,-100.00,SE,137,2.0,3.0,25,0.00,,,0.00,508.000000,,2013-06-27 14:52:00,
2013-06-27 09:01:00,70.0,33.0,-100.00,SE,137,2.0,3.0,25,0.00,,,0.00,508.000000,,2013-06-27 15:01:00,
2013-06-27 09:11:00,70.0,33.0,-100.00,SE,137,2.0,3.0,25,0.00,,,0.00,508.000000,,2013-06-27 15:11:00,
2013-06-27 09:22:00,70.0,33.0,-100.00,SE,137,2.0,3.0,25,0.00,,,0.00,508.000000,,2013-06-27 15:22:00,
2013-06-27 09:23:00,74.0,32.0,-100.00,SSE,151,3.0,4.0,21,0.00,,,0.00,742.000000,,2013-06-27 15:23:00,
2013-06-27 09:52:00,74.0,32.0,-100.00,SSE,151,3.0,4.0,21,0.00,,,0.00,742.000000,,2013-06-27 15:52:00,
2013-06-27 10:02:00,74.0,32.0,-100.00,SSE,151,3.0,4.0,21,0.00,,,0.00,742.000000,,2013-06-27 16:02:00,
2013-06-27 10:11:00,74.0,32.0,-100.00,SSE,151,3.0,4.0,21,0.00,,,0.00,742.000000,,2013-06-27 16:11:00,
2013-06-27 10:43:00,82.0,26.0,-100.00,NE,45,3.0,10.0,13,0.00,,,0.00,936.000000,,2013-06-27 16:43:00,
2013-06-27 10:53:00,82.0,26.0,-100.00,NE,45,3.0,10.0,13,0.00,,,0.00,936.000000,,2013-06-27 16:53:00,
2013-06-27 11:01:00,82.0,26.0,-100.00,NE,45,3.0,10.0,13,0.00,,,0.00,936.000000,,2013-06-27 17:01:00,
2013-06-27 11:11:00,82.0,26.0,-100.00,NE,45,3.0,10.0,13,0.00,,,0.00,936.000000,,2013-06-27 17:11:00,
2013-06-27 11:22:00,82.0,26.0,-100.00,NE,45,3.0,10.0,13,0.00,,,0.00,936.000000,,2013-06-27 17:22:00,
2013-06-27 11:43:00,82.0,24.0,-100.00,East,101,4.0,9.0,12,0.00,,,0.00,1083.000000,,2013-06-27 17:43:00,
2013-06-27 11:53:00,82.0,24.0,-100.00,East,101,4.0,9.0,12,0.00,,,0.00,1083.000000,,2013-06-27 17:53:00,
2013-06-27 12:01:00,82.0,24.0,-100.00,East,101,4.0,9.0,12,0.00,,,0.00,1083.000000,,2013-06-27 18:01:00,
2013-06-27 12:11:00,82.0,24.0,-100.00,East,101,4.0,9.0,12,0.00,,,0.00,1083.000000,,2013-06-27 18:11:00,
2013-06-27 12:22:00,82.0,24.0,-100.00,East,101,4.0,9.0,12,0.00,,,0.00,1083.000000,,2013-06-27 18:22:00,
2013-06-27 12:23:00,84.0,24.0,-100.00,ENE,67,4.0,8.0,11,0.00,,,0.00,1172.000000,,2013-06-27 18:23:00,
2013-06-27 12:44:00,84.0,24.0,-100.00,ENE,67,4.0,8.0,11,0.00,,,0.00,1172.000000,,2013-06-27 18:44:00,
2013-06-27 12:52:00,84.0,24.0,-100.00,ENE,67,4.0,8.0,11,0.00,,,0.00,1172.000000,,2013-06-27 18:52:00,
2013-06-27 13:01:00,84.0,24.0,-100.00,ENE,67,4.0,8.0,11,0.00,,,0.00,1172.000000,,2013-06-27 19:01:00,
2013-06-27 13:11:00,84.0,24.0,-100.00,ENE,67,4.0,8.0,11,0.00,,,0.00,1172.000000,,2013-06-27 19:11:00,
2013-06-27 13:42:00,86.0,23.0,-100.00,East,99,3.0,6.0,10,0.00,,,0.00,1239.000000,,2013-06-27 19:42:00,
2013-06-27 13:53:00,86.0,23.0,-100.00,East,99,3.0,6.0,10,0.00,,,0.00,1239.000000,,2013-06-27 19:53:00,
2013-06-27 14:01:00,86.0,23.0,-100.00,East,99,3.0,6.0,10,0.00,,,0.00,1239.000000,,2013-06-27 20:01:00,
2013-06-27 14:11:00,86.0,23.0,-100.00,East,99,3.0,6.0,10,0.00,,,0.00,1239.000000,,2013-06-27 20:11:00,
2013-06-27 14:22:00,86.0,23.0,-100.00,East,99,3.0,6.0,10,0.00,,,0.00,1239.000000,,2013-06-27 20:22:00,
2013-06-27 14:23:00,87.0,24.0,-100.00,East,93,4.0,8.0,10,0.00,,,0.00,1009.000000,,2013-06-27 20:23:00,
2013-06-27 14:49:00,87.0,24.0,-100.00,East,93,4.0,8.0,10,0.00,,,0.00,1009.000000,,2013-06-27 20:49:00,
2013-06-27 15:04:00,87.0,24.0,-100.00,East,93,4.0,8.0,10,0.00,,,0.00,1009.000000,,2013-06-27 21:04:00,
2013-06-27 15:13:00,87.0,24.0,-100.00,East,93,4.0,8.0,10,0.00,,,0.00,1009.000000,,2013-06-27 21:13:00,
2013-06-27 15:55:00,88.0,22.0,-100.00,ENE,67,3.0,7.0,9,0.00,,,0.00,1008.000000,,2013-06-27 21:55:00,
2013-06-27 16:06:00,88.0,22.0,-100.00,ENE,67,3.0,7.0,9,0.00,,,0.00,1008.000000,,2013-06-27 22:06:00,
2013-06-27 16:14:00,88.0,22.0,-100.00,ENE,67,3.0,7.0,9,0.00,,,0.00,1008.000000,,2013-06-27 22:14:00,
2013-06-27 16:22:00,88.0,22.0,-100.00,ENE,67,3.0,7.0,9,0.00,,,0.00,1008.000000,,2013-06-27 22:22:00,
2013-06-27 16:23:00,86.0,23.0,-100.00,SSW,208,3.0,7.0,10,0.00,,,0.00,596.000000,,2013-06-27 22:23:00,
2013-06-27 16:49:00,86.0,23.0,-100.00,SSW,208,3.0,7.0,10,0.00,,,0.00,596.000000,,2013-06-27 22:49:00,
2013-06-27 16:58:00,86.0,23.0,-100.00,SSW,208,3.0,7.0,10,0.00,,,0.00,596.000000,,2013-06-27 22:58:00,
2013-06-27 17:04:00,86.0,23.0,-100.00,SSW,208,3.0,7.0,10,0.00,,,0.00,596.000000,,2013-06-27 23:04:00,
2013-06-27 17:15:00,86.0,23.0,-100.00,SSW,208,3.0,7.0,10,0.00,,,0.00,596.000000,,2013-06-27 23:15:00,
2013-06-27 17:47:00,88.0,22.0,-100.00,East,91,2.0,5.0,9,0.00,,,0.00,480.000000,,2013-06-27 23:47:00,
2013-06-27 17:58:00,88.0,22.0,-100.00,East,91,2.0,5.0,9,0.00,,,0.00,480.000000,,2013-06-27 23:58:00,
2013-06-27 18:05:00,88.0,22.0,-100.00,East,91,2.0,5.0,9,0.00,,,0.00,480.000000,,2013-06-28 00:05:00,
2013-06-27 18:13:00,88.0,22.0,-100.00,East,91,2.0,5.0,9,0.00,,,0.00,480.000000,,2013-06-28 00:13:00,
2013-06-27 18:23:00,87.0,21.0,-100.00,NE,48,2.0,6.0,9,0.00,,,0.00,333.000000,,2013-06-28 00:23:00,
2013-06-27 18:56:00,87.0,21.0,-100.00,NE,48,2.0,6.0,9,0.00,,,0.00,333.000000,,2013-06-28 00:56:00,
2013-06-27 19:06:00,87.0,21.0,-100.00,NE,48,2.0,6.0,9,0.00,,,0.00,333.000000,,2013-06-28 01:06:00,
2013-06-27 19:13:00,87.0,21.0,-100.00,NE,48,2.0,6.0,9,0.00,,,0.00,333.000000,,2013-06-28 01:13:00,
2013-06-27 19:48:00,80.0,25.0,-100.00,NNW,327,2.0,6.0,13,0.00,,,0.00,192.000000,,2013-06-28 01:48:00,
2013-06-27 19:57:00,80.0,25.0,-100.00,NNW,327,2.0,6.0,13,0.00,,,0.00,192.000000,,2013-06-28 01:57:00,
2013-06-27 20:04:00,80.0,25.0,-100.00,NNW,327,2.0,6.0,13,0.00,,,0.00,192.000000,,2013-06-28 02:04:00,
2013-06-27 20:16:00,80.0,25.0,-100.00,NNW,327,2.0,6.0,13,0.00,,,0.00,192.000000,,2013-06-28 02:16:00,
2013-06-27 20:50:00,78.0,25.0,-100.00,South,191,5.0,15.0,14,0.00,,,0.00,9.000000,,2013-06-28 02:50:00,
2013-06-27 20:57:00,78.0,25.0,-100.00,South,191,5.0,15.0,14,0.00,,,0.00,9.000000,,2013-06-28 02:57:00,
2013-06-27 21:06:00,78.0,25.0,-100.00,South,191,5.0,15.0,14,0.00,,,0.00,9.000000,,2013-06-28 03:06:00,
2013-06-27 21:14:00,78.0,25.0,-100.00,South,191,5.0,15.0,14,0.00,,,0.00,9.000000,,2013-06-28 03:14:00,
2013-06-27 21:56:00,72.0,31.0,-100.00,WSW,256,5.0,16.0,22,0.00,,,-99.99,2.000000,,2013-06-28 03:56:00,
2013-06-27 22:02:00,72.0,31.0,-100.00,WSW,256,5.0,16.0,22,0.00,,,-99.99,2.000000,,2013-06-28 04:02:00,
2013-06-27 22:11:00,72.0,31.0,-100.00,WSW,256,5.0,16.0,22,0.00,,,-99.99,2.000000,,2013-06-28 04:11:00,
2013-06-27 22:22:00,72.0,31.0,-100.00,WSW,256,5.0,16.0,22,0.00,,,-99.99,2.000000,,2013-06-28 04:22:00,
2013-06-27 22:43:00,70.0,29.0,-100.00,NW,313,3.0,6.0,22,0.00,,,0.00,0.000000,,2013-06-28 04:43:00,
2013-06-27 22:53:00,70.0,29.0,-100.00,NW,313,3.0,6.0,22,0.00,,,0.00,0.000000,,2013-06-28 04:53:00,
2013-06-27 23:01:00,70.0,29.0,-100.00,NW,313,3.0,6.0,22,0.00,,,0.00,0.000000,,2013-06-28 05:01:00,
2013-06-27 23:11:00,70.0,29.0,-100.00,NW,313,3.0,6.0,22,0.00,,,0.00,0.000000,,2013-06-28 05:11:00,
2013-06-27 23:22:00,70.0,29.0,-100.00,NW,313,3.0,6.0,22,0.00,,,0.00,0.000000,,2013-06-28 05:22:00,
2013-06-27 23:43:00,63.0,31.0,-100.00,North,0,2.0,3.0,30,0.00,,,0.00,0.000000,,2013-06-28 05:43:00,
2013-06-27 23:53:00,63.0,31.0,-100.00,North,0,2.0,3.0,30,0.00,,,0.00,0.000000,,2013-06-28 05:53:00,